METAR - Ísland

Uppfært síðast 30.03.2020 - kl. 20:51

SIGMET síðustu 6 klst.

BIRD SIGMET A05 VALID 301900/302200 BIRK- BIRD REYKJAVIK CTA SEV MTW OBS WI N6610 W01800 - N6450 W01740 - N6440 W01500 - N6620 W01340 - N6610 W01800 FL160/320 STNR NC
BIRD SIGMET A04 VALID 301700/301900 BIRK- BIRD REYKJAVIK CTA SEV MTW OBS WI N6610 W01800 - N6450 W01740 - N6440 W01500 - N6620 W01340 - N6610 W01800 FL160/320 STNR NC

METAR síðustu 3 klst

Flugv.TímiSkeyti
BIAR2020-03-30 20.00METAR BIAR 302000Z 20015G27KT 9999 -RA OVC028 06/00 Q1023 RMK WIND VADLAHEIDI 26034G47KT
BIAR2020-03-30 19.00METAR BIAR 301900Z 19018G29KT 9999 -DZ BKN037 OVC046 06/00 Q1024 RMK WIND VADLAHEIDI 26034KT
BIAR2020-03-30 18.00METAR BIAR 301800Z 18009G19KT 120V230 9999 OVC044 07/M01 Q1024 RMK WIND VADLAHEIDI 26032KT
BIEG2020-03-30 20.00METAR BIEG 302000Z 25015G33KT 9999 FEW050 BKN150 06/M02 Q1026
BIEG2020-03-30 19.00METAR BIEG 301900Z 20013KT 9999 FEW050 SCT150 06/M02 Q1027
BIEG2020-03-30 18.00METAR BIEG 301800Z 20021G35KT 9999 FEW040 07/M02 Q1025
BIHN2020-03-30 19.00METAR BIHN 301900Z 30009KT CAVOK 10/05 Q1025
BIHN2020-03-30 18.00METAR BIHN 301800Z 24010KT CAVOK 09/01 Q1025
BIKF2020-03-30 20.30METAR BIKF 302030Z 23022KT 9999 FEW035 OVC052 06/04 Q1030
BIKF2020-03-30 20.00METAR BIKF 302000Z 23023KT 9999 SCT029 OVC052 06/04 Q1030
BIKF2020-03-30 19.30METAR BIKF 301930Z 23023KT 9999 OVC049 06/04 Q1030
BIKF2020-03-30 19.00METAR BIKF 301900Z 23024KT 9999 BKN049 06/04 Q1030
BIKF2020-03-30 18.30METAR BIKF 301830Z 23022KT 9999 BKN049 06/03 Q1031
BIKF2020-03-30 18.00METAR BIKF 301800Z 23021KT 9999 BKN049 06/04 Q1031
BIRK2020-03-30 20.00METAR BIRK 302000Z 22018KT 9999 VCSH FEW020 SCT040 BKN055 05/02 Q1030
BIRK2020-03-30 19.00METAR BIRK 301900Z 22018KT 9999 BR FEW018 BKN040 BKN055 05/02 Q1031
BIRK2020-03-30 18.00METAR BIRK 301800Z 23018KT 9999 FEW020 BKN056 06/02 Q1031
BIVM2020-03-30 18.00METAR BIVM 301800Z 28013KT 9999 BKN017 BKN024 06/04 Q1033

Textaspár eru skrifaðar af vakthafandi veðurfræðingi á Veðurstofu Íslands.




Aðrir tengdir vefir



Þetta vefsvæði byggir á Eplica